15:04
Airports
History
Links
Donate
Help keep this website running!
PayPal
Bitcoin
This page is community maintained. The information is intended for PC simulator navigation or reference.
Always use approved charts for navigation.
RI20
Mystery Farm
Mystery Farm (RI20)
Cranston, Rhode Island, United States (2921)
4
Lat/Lng:41° 44' 22.36" N / 71° 31' 28.22" W
41.739544 / -71.524506
Elevation:310'ft / 94mMSL
ID / ICAO:RI20
Runways:1
Longest:17-35
Grass 209m / 686ft
Nearby Weather14:51 GMT 2017-11-23
Nearby weather at KPVD, Theodore Francis Green State located 5.1 nautical miles from RI20
Altimeter: 30.05
Visibility: 10.0 statute miles
Wind: 7 knots (from 310°)
Temp: 3°c / 37°f
Humidity: 51.5%

METAR: KPVD 231451Z 31007KT 10SM FEW300 03/M06 A3005 RMK AO2 SLP176 T00331061 51005 $

(Powered by phpweather)
Nearby VORs <50NM
Nearby NDBs
Runway 17 / 35
Dimensions:209.2 x 45.7m 686' x 150'ft
Surface:Grass
Runway 17 [A]Runway 35 [B]
Heading:154°TH 334°TH
Lat:
Lng:
41° 44' 25.49"N
71° 31' 30.18"W
41° 44' 19.23"N
71° 31' 26.26"W
User Notes and Comments
41° 44' 22.36" N / 71° 31' 28.22" W
Distance To
Airport ID:
Nearby Airports
(C) Theodore Francis Green State 5.1 NM
KPVD ( WX ) ESE 102°
(C) Quonset State 11.4 NM
KOQU ( WX ) SSE 149°
(U) North Central State 12.6 NM
KSFZ ( WX ) N
(R) Riconn 13.7 NM
RI11 WSW 257°
(U) Richmond 18.0 NM
08R SSW 196°
(R) Yankee Airstrip 18.0 NM
CT13 WNW 303°
(U) Newport State 19.0 NM
KUUU ( WX ) SE 138°
VFR Chart
Flight Planning at SkyVector.com